首页
METAR-TAF:

METAR-TAF

机场 :

皮阿尔科国际机场

西班牙港, 特立尼达岛, 千里達及托巴哥

纬度: 10-37N, 经度: 061-21W, 海拔: 12米

当前天气观测

该预报发布于25分钟前的08:00 UTC
风速11节,风向
温度 26°C
湿度 84%
气压 1013 hPa
能见度10公里或以上
少量云层高于1600英尺

METAR: TTPP 230800Z 10011KT 9999 FEW016 26/23 Q1013 NOSIG

时间: 04:25 (08:25 UTC)

预报

该预报发布于4小时和25分钟前的04:00 UTC
预报有效从23日的 06点(UTC)到 24日的 06点(UTC)
风速7节,风向东转东南
能见度10公里或以上
少量云层高于1600英尺
短暂存在
从 23日的 06点(UTC)到 23日的 11点(UTC)
能見度: 7000
多云层高于1500英尺
阵雨
成为
从 23日的 11点(UTC)到 23日的 13点(UTC)
风速15节,风向
散云层高于1800英尺
几率 40% :
短暂存在
从 23日的 14点(UTC)到 23日的 21点(UTC)
能見度: 7000
多云层高于1600英尺
阵雨
成为
从 23日的 23点(UTC)到 24日的 01点(UTC)
风速10节,风向
少量云层高于1600英尺

TAF: TTPP 230400Z 2306/2406 11007KT 9999 FEW016 TEMPO 2306/2311 7000 SHRA BKN015 BECMG 2311/2313 10015KT SCT018 PROB40 TEMPO 2314/2321 7000 SHRA BKN016 BECMG 2323/2401 09010KT FEW016

超过4000个机场的气象观测和天气预报(METAR&TAF报告)。

可查询的气象台以黄色和红色小点在地图上表示。

将鼠标移到小点上方,可查看气象台名称。

然后点击查看天气观测和预报。

如需切换地图:点击带黑十字的绿色按钮放大地图;点击带横线的绿色按钮缩小地图;或者点击绿色箭头查看邻近地区的地图。


METAR-TAF: